Time;durP1;ratioP1;P1;durP2;ratioP2;P2;SDS_P1;SDS_P2;PMS_P1;PMS_P2;Temp;Humidity;BMP_temperature;BMP_pressure;BME280_temperature;BME280_humidity;BME280_pressure;Samples;Min_cycle;Max_cycle;Signal;HPM_P1;HPM_P2
2021/07/10 00:01:19;;;;;;;59.95;29.92;;;;;;;;;;4359673;33;20579;-81
2021/07/10 00:03:44;;;;;;;47.72;25.25;;;;;;;;;;4359047;33;20155;-81
2021/07/10 00:06:10;;;;;;;46.03;24.52;;;;;;;;;;4359644;32;20151;-81
2021/07/10 00:08:35;;;;;;;44.22;25.62;;;;;;;;;;4359334;33;20185;-81
2021/07/10 00:11:01;;;;;;;53.58;26.87;;;;;;;;;;4359573;33;20194;-81
2021/07/10 00:13:29;;;;;;;44.47;25.73;;;;;;;;;;4359587;33;20139;-81
2021/07/10 00:15:57;;;;;;;47.72;26.35;;;;;;;;;;4359427;33;20151;-82
2021/07/10 00:18:22;;;;;;;45.45;24.23;;;;;;;;;;4359162;33;20609;-81
2021/07/10 00:20:49;;;;;;;44.72;24.08;;;;;;;;;;4358848;33;20230;-81
2021/07/10 00:23:15;;;;;;;52.67;26.95;;;;;;;;;;4359269;33;20170;-81
2021/07/10 00:25:40;;;;;;;48.97;25.85;;;;;;;;;;4358839;33;20135;-81
2021/07/10 00:28:14;;;;;;;52.03;28.50;;;;;;;;;;4357968;33;20215;-80
2021/07/10 00:30:39;;;;;;;46.42;25.55;;;;;;;;;;4359354;33;20204;-81
2021/07/10 00:33:05;;;;;;;44.28;23.52;;;;;;;;;;4358702;33;20538;-80
2021/07/10 00:35:30;;;;;;;42.60;24.33;;;;;;;;;;4357463;33;20178;-81
2021/07/10 00:37:58;;;;;;;61.30;28.65;;;;;;;;;;4358707;32;20164;-80
2021/07/10 00:40:24;;;;;;;44.10;24.10;;;;;;;;;;4358856;32;20147;-80
2021/07/10 00:42:49;;;;;;;45.03;24.20;;;;;;;;;;4358572;33;20135;-81
2021/07/10 00:45:18;;;;;;;56.13;26.67;;;;;;;;;;4357567;32;20182;-82
2021/07/10 00:47:43;;;;;;;45.70;24.90;;;;;;;;;;4358813;32;20151;-82
2021/07/10 00:50:17;;;;;;;48.58;25.92;;;;;;;;;;4357222;32;20175;-82
2021/07/10 00:52:42;;;;;;;51.58;26.85;;;;;;;;;;4359058;32;20575;-82
2021/07/10 00:55:08;;;;;;;55.15;28.27;;;;;;;;;;4358577;33;20211;-82
2021/07/10 00:57:38;;;;;;;53.17;27.35;;;;;;;;;;4358392;32;20180;-81
2021/07/10 01:00:14;;;;;;;62.50;29.12;;;;;;;;;;4358714;32;20212;-82
2021/07/10 01:02:40;;;;;;;46.42;25.00;;;;;;;;;;4357285;33;20269;-81
2021/07/10 01:05:07;;;;;;;47.85;25.50;;;;;;;;;;4357193;33;20262;-80
2021/07/10 01:07:33;;;;;;;59.75;30.88;;;;;;;;;;4358473;32;20150;-81
2021/07/10 01:09:58;;;;;;;50.35;24.87;;;;;;;;;;4356222;32;20179;-81
2021/07/10 01:12:23;;;;;;;48.75;26.12;;;;;;;;;;4358545;32;20144;-81
2021/07/10 01:14:49;;;;;;;47.00;24.02;;;;;;;;;;4358324;32;20178;-80
2021/07/10 01:17:14;;;;;;;48.80;25.67;;;;;;;;;;4358552;32;20147;-81
2021/07/10 01:19:39;;;;;;;54.08;27.62;;;;;;;;;;4358218;32;20167;-81
2021/07/10 01:22:07;;;;;;;55.92;29.45;;;;;;;;;;4358337;33;20143;-81
2021/07/10 01:24:33;;;;;;;51.45;28.02;;;;;;;;;;4358476;33;20215;-81
2021/07/10 01:26:58;;;;;;;47.85;25.42;;;;;;;;;;4358176;33;20195;-80
2021/07/10 01:29:26;;;;;;;53.53;29.35;;;;;;;;;;4358447;33;20139;-81
2021/07/10 01:31:53;;;;;;;42.35;23.75;;;;;;;;;;4357992;32;20151;-80
2021/07/10 01:34:18;;;;;;;42.15;24.77;;;;;;;;;;4357921;32;20551;-83
2021/07/10 01:36:44;;;;;;;52.58;28.12;;;;;;;;;;4357119;33;20183;-81
2021/07/10 01:39:10;;;;;;;50.17;27.95;;;;;;;;;;4358353;33;20253;-81
2021/07/10 01:41:46;;;;;;;44.50;24.80;;;;;;;;;;4356086;32;20524;-81
2021/07/10 01:44:11;;;;;;;46.70;26.80;;;;;;;;;;4358458;32;20169;-80
2021/07/10 01:46:43;;;;;;;44.10;23.85;;;;;;;;;;4357844;32;20495;-80
2021/07/10 01:49:11;;;;;;;43.20;23.80;;;;;;;;;;4356789;32;20675;-81
2021/07/10 01:51:37;;;;;;;44.85;23.10;;;;;;;;;;4357947;32;20178;-81
2021/07/10 01:54:02;;;;;;;43.83;23.60;;;;;;;;;;4358354;32;20132;-81
2021/07/10 01:56:28;;;;;;;42.97;23.40;;;;;;;;;;4358130;32;20194;-81
2021/07/10 01:58:55;;;;;;;48.53;24.85;;;;;;;;;;4357954;32;20146;-81
2021/07/10 02:01:21;;;;;;;49.45;25.60;;;;;;;;;;4357881;33;20204;-81
2021/07/10 02:06:32;;;;;;;52.85;26.73;;;;;;;;;;4349212;33;20162;-82
2021/07/10 02:08:58;;;;;;;52.85;27.40;;;;;;;;;;4358252;33;20196;-81
2021/07/10 02:11:23;;;;;;;54.25;28.60;;;;;;;;;;4358151;33;20170;-81
2021/07/10 02:13:51;;;;;;;54.88;28.77;;;;;;;;;;4358381;32;20173;-81
2021/07/10 02:16:16;;;;;;;56.80;27.75;;;;;;;;;;4358848;33;20217;-82
2021/07/10 02:18:42;;;;;;;56.20;27.62;;;;;;;;;;4358109;33;20147;-81
2021/07/10 02:21:09;;;;;;;55.25;27.92;;;;;;;;;;4357593;33;20175;-82
2021/07/10 02:23:34;;;;;;;68.97;32.95;;;;;;;;;;4357870;33;20139;-81
2021/07/10 02:25:59;;;;;;;69.45;32.92;;;;;;;;;;4357808;33;20161;-81
2021/07/10 02:28:25;;;;;;;68.97;31.55;;;;;;;;;;4357368;33;20179;-81
2021/07/10 02:30:50;;;;;;;59.00;27.35;;;;;;;;;;4359776;32;20158;-81
2021/07/10 02:33:16;;;;;;;68.68;29.50;;;;;;;;;;4360883;32;20476;-82
2021/07/10 02:35:41;;;;;;;73.15;33.13;;;;;;;;;;4360315;33;20147;-81
2021/07/10 02:38:10;;;;;;;73.28;32.63;;;;;;;;;;4358159;33;20485;-82
2021/07/10 02:40:35;;;;;;;80.18;31.62;;;;;;;;;;4347043;33;20160;-81
2021/07/10 02:43:01;;;;;;;72.87;32.03;;;;;;;;;;4345834;32;20614;-81
2021/07/10 02:45:27;;;;;;;66.07;31.27;;;;;;;;;;4345719;33;20151;-81
2021/07/10 02:48:02;;;;;;;75.50;31.80;;;;;;;;;;4353780;32;20174;-81
2021/07/10 02:50:27;;;;;;;85.32;35.00;;;;;;;;;;4360190;32;20170;-81
2021/07/10 02:52:54;;;;;;;75.25;33.67;;;;;;;;;;4359982;32;20139;-80
2021/07/10 02:55:20;;;;;;;73.68;31.62;;;;;;;;;;4359384;33;20155;-81
2021/07/10 02:57:45;;;;;;;54.42;28.27;;;;;;;;;;4359831;32;20222;-81
2021/07/10 03:03:19;;;;;;;63.45;29.67;;;;;;;;;;4360263;33;20195;-81
2021/07/10 03:05:44;;;;;;;70.57;32.63;;;;;;;;;;4360067;33;20139;-81
2021/07/10 03:08:10;;;;;;;66.50;30.85;;;;;;;;;;4360230;33;20174;-81
2021/07/10 03:10:35;;;;;;;63.67;31.35;;;;;;;;;;4360027;33;20193;-81
2021/07/10 03:13:00;;;;;;;72.28;32.47;;;;;;;;;;4359141;33;20216;-81
2021/07/10 03:15:26;;;;;;;68.57;32.60;;;;;;;;;;4359746;33;20544;-81
2021/07/10 03:17:52;;;;;;;72.28;33.05;;;;;;;;;;4358760;33;20163;-80
2021/07/10 03:20:23;;;;;;;76.82;34.55;;;;;;;;;;4360017;33;20472;-81
2021/07/10 03:22:48;;;;;;;66.65;32.10;;;;;;;;;;4360057;32;20171;-81
2021/07/10 03:25:14;;;;;;;73.60;34.65;;;;;;;;;;4359654;33;20131;-81
2021/07/10 03:27:40;;;;;;;91.93;39.15;;;;;;;;;;4359421;33;20193;-80
2021/07/10 03:30:07;;;;;;;83.25;36.22;;;;;;;;;;4359980;33;20162;-81
2021/07/10 03:32:32;;;;;;;80.53;35.28;;;;;;;;;;4359897;33;20471;-81
2021/07/10 03:34:58;;;;;;;85.18;35.15;;;;;;;;;;4359475;32;20196;-81
2021/07/10 03:37:23;;;;;;;86.35;37.88;;;;;;;;;;4359872;33;20178;-80
2021/07/10 03:39:57;;;;;;;90.40;37.70;;;;;;;;;;4360085;33;20540;-80
2021/07/10 03:42:23;;;;;;;103.05;42.72;;;;;;;;;;4359833;32;20183;-81
2021/07/10 03:44:48;;;;;;;95.18;41.30;;;;;;;;;;4359689;32;20599;-81
2021/07/10 03:47:14;;;;;;;94.78;40.55;;;;;;;;;;4358059;32;20166;-81
2021/07/10 03:49:40;;;;;;;101.32;42.33;;;;;;;;;;4358970;33;20156;-81
2021/07/10 03:52:14;;;;;;;93.60;41.33;;;;;;;;;;4359611;32;20196;-81
2021/07/10 03:54:48;;;;;;;85.35;39.92;;;;;;;;;;4359762;32;20519;-81
2021/07/10 03:57:14;;;;;;;91.82;42.35;;;;;;;;;;4359908;32;20135;-82
2021/07/10 03:59:39;;;;;;;87.78;41.22;;;;;;;;;;4359188;32;20605;-81
2021/07/10 04:02:04;;;;;;;91.47;41.92;;;;;;;;;;4359081;32;20151;-81
2021/07/10 04:04:30;;;;;;;110.37;44.58;;;;;;;;;;4359553;32;20198;-81
2021/07/10 04:06:56;;;;;;;100.80;42.15;;;;;;;;;;4359200;33;20143;-81
2021/07/10 04:09:22;;;;;;;78.40;35.28;;;;;;;;;;4359475;33;20150;-80
2021/07/10 04:11:47;;;;;;;76.90;35.58;;;;;;;;;;4358905;33;20165;-81
2021/07/10 04:14:12;;;;;;;79.87;34.55;;;;;;;;;;4359511;33;20234;-81
2021/07/10 04:16:45;;;;;;;71.03;34.03;;;;;;;;;;4358957;33;20526;-81
2021/07/10 04:19:19;;;;;;;76.45;35.40;;;;;;;;;;4359291;33;20166;-81
2021/07/10 04:21:44;;;;;;;79.70;37.72;;;;;;;;;;4359178;33;20138;-80
2021/07/10 04:24:21;;;;;;;66.82;32.50;;;;;;;;;;4358949;33;20169;-81
2021/07/10 04:26:47;;;;;;;74.15;36.33;;;;;;;;;;4359631;32;20187;-82
2021/07/10 04:29:12;;;;;;;72.70;35.22;;;;;;;;;;4359247;33;20523;-82
2021/07/10 04:31:38;;;;;;;84.85;37.63;;;;;;;;;;4359080;33;20198;-80
2021/07/10 04:34:03;;;;;;;76.57;34.75;;;;;;;;;;4359057;33;20519;-81
2021/07/10 04:36:37;;;;;;;74.78;36.33;;;;;;;;;;4358896;33;20175;-80
2021/07/10 04:39:06;;;;;;;67.97;32.15;;;;;;;;;;4359290;33;20236;-79
2021/07/10 04:41:31;;;;;;;79.78;37.40;;;;;;;;;;4358761;33;20199;-80
2021/07/10 04:43:56;;;;;;;76.15;38.40;;;;;;;;;;4358733;33;20143;-82
2021/07/10 04:46:21;;;;;;;82.07;39.72;;;;;;;;;;4358640;33;20196;-82
2021/07/10 04:48:49;;;;;;;72.05;35.95;;;;;;;;;;4358585;33;20174;-81
2021/07/10 04:51:15;;;;;;;74.18;34.83;;;;;;;;;;4358716;33;20127;-81
2021/07/10 04:53:40;;;;;;;67.05;32.28;;;;;;;;;;4358322;32;20421;-81
2021/07/10 04:56:11;;;;;;;63.20;32.92;;;;;;;;;;4358617;33;20151;-81
2021/07/10 04:58:45;;;;;;;62.60;32.60;;;;;;;;;;4358956;33;20440;-81
2021/07/10 05:01:14;;;;;;;64.97;35.20;;;;;;;;;;4359059;33;20157;-80
2021/07/10 05:03:58;;;;;;;;;;;;;;;;;;;;;
2021/07/10 05:06:34;;;;;;;62.83;33.35;;;;;;;;;;4359017;33;20147;-83
2021/07/10 05:08:59;;;;;;;64.12;33.53;;;;;;;;;;4359128;32;20173;-82
2021/07/10 05:11:25;;;;;;;72.35;37.50;;;;;;;;;;4359323;33;20127;-82
2021/07/10 05:13:52;;;;;;;67.15;37.00;;;;;;;;;;4359440;33;20126;-81
2021/07/10 05:16:21;;;;;;;61.37;33.97;;;;;;;;;;4358354;32;20226;-80
2021/07/10 05:18:47;;;;;;;62.40;36.95;;;;;;;;;;4358231;33;20200;-79
2021/07/10 05:21:13;;;;;;;66.35;34.83;;;;;;;;;;4358707;33;20150;-83
2021/07/10 05:23:38;;;;;;;59.40;34.22;;;;;;;;;;4357851;33;20221;-81
2021/07/10 05:26:06;;;;;;;66.05;34.22;;;;;;;;;;4358022;33;20444;-80
2021/07/10 05:28:31;;;;;;;66.60;33.50;;;;;;;;;;4354474;32;20234;-80
2021/07/10 05:30:56;;;;;;;69.40;34.83;;;;;;;;;;4358410;33;20150;-81
2021/07/10 05:33:22;;;;;;;58.80;32.40;;;;;;;;;;4358030;33;20146;-81
2021/07/10 05:35:47;;;;;;;59.42;33.35;;;;;;;;;;4358116;33;20127;-81
2021/07/10 05:38:13;;;;;;;59.60;33.65;;;;;;;;;;4358567;32;20218;-81
2021/07/10 05:40:38;;;;;;;55.85;31.87;;;;;;;;;;4356662;33;20198;-81
2021/07/10 05:43:04;;;;;;;59.45;33.53;;;;;;;;;;4358129;33;20604;-81
2021/07/10 05:45:29;;;;;;;60.12;34.03;;;;;;;;;;4356516;33;20155;-81
2021/07/10 05:47:54;;;;;;;54.80;30.58;;;;;;;;;;4357792;32;20542;-82
2021/07/10 05:50:20;;;;;;;66.18;36.78;;;;;;;;;;4357888;32;20648;-81
2021/07/10 05:52:45;;;;;;;53.38;31.50;;;;;;;;;;4358103;32;20130;-82
2021/07/10 05:55:13;;;;;;;55.42;32.10;;;;;;;;;;4358179;32;20177;-80
2021/07/10 05:57:39;;;;;;;55.15;32.33;;;;;;;;;;4357763;33;20201;-80
2021/07/10 06:00:14;;;;;;;54.75;31.60;;;;;;;;;;4358074;33;20135;-80
2021/07/10 06:02:40;;;;;;;52.03;29.65;;;;;;;;;;4343685;33;20611;-82
2021/07/10 06:05:06;;;;;;;57.40;31.73;;;;;;;;;;4345140;33;20150;-82
2021/07/10 06:07:31;;;;;;;53.42;30.62;;;;;;;;;;4346363;33;20147;-80
2021/07/10 06:09:57;;;;;;;51.53;28.15;;;;;;;;;;4345313;33;20595;-81
2021/07/10 06:12:22;;;;;;;54.92;30.35;;;;;;;;;;4345636;33;20123;-81
2021/07/10 06:14:47;;;;;;;54.25;29.52;;;;;;;;;;4359817;33;20158;-82
2021/07/10 06:17:12;;;;;;;47.75;27.50;;;;;;;;;;4359093;33;20509;-81
2021/07/10 06:19:38;;;;;;;45.90;26.05;;;;;;;;;;4360893;33;20170;-81
2021/07/10 06:22:12;;;;;;;46.47;24.83;;;;;;;;;;4360478;33;20556;-80
2021/07/10 06:24:40;;;;;;;42.25;25.33;;;;;;;;;;4359094;33;20185;-81
2021/07/10 06:27:05;;;;;;;46.28;26.20;;;;;;;;;;4360243;33;20136;-79
2021/07/10 06:29:33;;;;;;;45.45;23.85;;;;;;;;;;4360308;33;20192;-80
2021/07/10 06:31:58;;;;;;;38.95;22.55;;;;;;;;;;4360452;33;20204;-83
2021/07/10 06:34:24;;;;;;;44.85;24.98;;;;;;;;;;4360285;33;20140;-81
2021/07/10 06:36:49;;;;;;;42.25;22.73;;;;;;;;;;4360254;33;20140;-80
2021/07/10 06:39:16;;;;;;;37.90;24.00;;;;;;;;;;4360574;33;20595;-81
2021/07/10 06:41:42;;;;;;;39.38;23.23;;;;;;;;;;4360632;33;20596;-80
2021/07/10 06:44:07;;;;;;;36.95;21.70;;;;;;;;;;4360080;33;20143;-81
2021/07/10 06:46:32;;;;;;;41.58;22.17;;;;;;;;;;4359947;33;20196;-80
2021/07/10 06:49:01;;;;;;;39.75;23.70;;;;;;;;;;4359615;33;20198;-80
2021/07/10 06:51:26;;;;;;;40.25;23.75;;;;;;;;;;4360950;33;20158;-81
2021/07/10 06:53:54;;;;;;;41.80;23.52;;;;;;;;;;4358421;33;20163;-81
2021/07/10 06:56:20;;;;;;;38.72;22.65;;;;;;;;;;4359564;33;20502;-78
2021/07/10 06:58:45;;;;;;;33.60;19.92;;;;;;;;;;4359830;32;20252;-78
2021/07/10 07:01:13;;;;;;;35.70;21.77;;;;;;;;;;4359568;33;20135;-78
2021/07/10 07:03:38;;;;;;;38.72;21.67;;;;;;;;;;4358978;33;20147;-77
2021/07/10 07:06:03;;;;;;;40.17;22.62;;;;;;;;;;4359604;32;20612;-78
2021/07/10 07:08:31;;;;;;;31.17;19.87;;;;;;;;;;4359376;33;20579;-77
2021/07/10 07:10:57;;;;;;;31.73;20.88;;;;;;;;;;4359502;33;20158;-78
2021/07/10 07:13:22;;;;;;;33.83;21.62;;;;;;;;;;4359487;33;20150;-78
2021/07/10 07:15:47;;;;;;;35.17;21.12;;;;;;;;;;4357735;32;20483;-78
2021/07/10 07:18:15;;;;;;;29.10;18.25;;;;;;;;;;4359645;33;20563;-77
2021/07/10 07:20:40;;;;;;;27.77;17.92;;;;;;;;;;4359711;33;20213;-79
2021/07/10 07:23:09;;;;;;;34.22;21.65;;;;;;;;;;4359436;33;20132;-78
2021/07/10 07:25:35;;;;;;;37.97;22.60;;;;;;;;;;4359839;32;20135;-79
2021/07/10 07:28:01;;;;;;;35.53;21.87;;;;;;;;;;4359678;33;20196;-78
2021/07/10 07:30:29;;;;;;;32.03;19.30;;;;;;;;;;4360016;33;20127;-79
2021/07/10 07:32:54;;;;;;;35.03;21.87;;;;;;;;;;4359836;32;20135;-79
2021/07/10 07:35:20;;;;;;;36.78;22.87;;;;;;;;;;4359170;33;20564;-78
2021/07/10 07:38:04;;;;;;;38.47;26.85;;;;;;;;;;4359751;32;20403;-78
2021/07/10 07:40:30;;;;;;;32.75;22.62;;;;;;;;;;4359319;32;20206;-80
2021/07/10 07:42:55;;;;;;;40.08;23.83;;;;;;;;;;4359338;32;20475;-79
2021/07/10 07:45:21;;;;;;;37.92;22.42;;;;;;;;;;4360476;32;20136;-78
2021/07/10 07:47:54;;;;;;;42.38;25.70;;;;;;;;;;4360800;33;20182;-79
2021/07/10 07:50:20;;;;;;;37.80;26.85;;;;;;;;;;4359404;33;20223;-78
2021/07/10 07:52:45;;;;;;;39.28;26.35;;;;;;;;;;4360161;32;20147;-78
2021/07/10 07:55:11;;;;;;;39.72;26.42;;;;;;;;;;4360459;32;20552;-76
2021/07/10 07:57:37;;;;;;;32.92;23.27;;;;;;;;;;4358168;33;20202;-79
2021/07/10 08:00:05;;;;;;;32.70;22.20;;;;;;;;;;4360499;32;20481;-77
2021/07/10 08:02:30;;;;;;;39.42;26.42;;;;;;;;;;4361252;33;20139;-78
2021/07/10 08:04:55;;;;;;;35.20;23.05;;;;;;;;;;4361634;33;20297;-78
2021/07/10 08:07:21;;;;;;;41.88;26.80;;;;;;;;;;4359167;33;20554;-78
2021/07/10 08:09:49;;;;;;;36.80;25.65;;;;;;;;;;4359790;33;20139;-78
2021/07/10 08:12:14;;;;;;;43.28;27.73;;;;;;;;;;4359326;33;20246;-78
2021/07/10 08:14:39;;;;;;;36.10;24.00;;;;;;;;;;4358253;33;20151;-78
2021/07/10 08:17:28;;;;;;;40.85;27.77;;;;;;;;;;4359656;33;20154;-77
2021/07/10 08:19:54;;;;;;;30.02;21.55;;;;;;;;;;4358467;33;20203;-79
2021/07/10 08:22:22;;;;;;;37.70;25.08;;;;;;;;;;4359506;33;20580;-80
2021/07/10 08:24:48;;;;;;;36.60;24.92;;;;;;;;;;4359499;33;20127;-78
2021/07/10 08:27:13;;;;;;;33.20;23.52;;;;;;;;;;4358791;33;20165;-79
2021/07/10 08:29:38;;;;;;;37.88;27.10;;;;;;;;;;4359104;32;20213;-78
2021/07/10 08:32:16;;;;;;;40.70;29.17;;;;;;;;;;4359324;33;20132;-80
2021/07/10 08:34:41;;;;;;;40.88;27.65;;;;;;;;;;4358031;33;20193;-78
2021/07/10 08:37:07;;;;;;;36.78;25.23;;;;;;;;;;4357534;33;20576;-79
2021/07/10 08:39:32;;;;;;;38.22;24.37;;;;;;;;;;4358753;33;20135;-78
2021/07/10 08:41:57;;;;;;;37.92;25.52;;;;;;;;;;4358541;32;20593;-78
2021/07/10 08:44:24;;;;;;;35.58;25.40;;;;;;;;;;4359372;33;20147;-80
2021/07/10 08:47:05;;;;;;;38.25;25.23;;;;;;;;;;4359365;32;20167;-79
2021/07/10 08:49:30;;;;;;;37.10;24.83;;;;;;;;;;4358544;33;20178;-79
2021/07/10 08:51:56;;;;;;;35.05;25.80;;;;;;;;;;4358893;33;20140;-76
2021/07/10 08:54:21;;;;;;;37.35;24.83;;;;;;;;;;4358693;33;20139;-78
2021/07/10 08:56:46;;;;;;;34.95;23.85;;;;;;;;;;4357525;33;20475;-78
2021/07/10 08:59:12;;;;;;;36.53;24.02;;;;;;;;;;4358743;33;20469;-77
2021/07/10 09:01:38;;;;;;;33.55;24.58;;;;;;;;;;4356742;33;20215;-80
2021/07/10 09:04:03;;;;;;;34.92;24.85;;;;;;;;;;4359126;33;20166;-80
2021/07/10 09:06:29;;;;;;;33.55;25.02;;;;;;;;;;4358317;33;20209;-77
2021/07/10 09:08:57;;;;;;;32.33;23.08;;;;;;;;;;4358886;33;20147;-78
2021/07/10 09:11:24;;;;;;;40.53;26.50;;;;;;;;;;4358634;32;20151;-77
2021/07/10 09:13:50;;;;;;;37.67;24.37;;;;;;;;;;4359411;33;20194;-78
2021/07/10 09:16:23;;;;;;;41.00;28.15;;;;;;;;;;4358289;32;20143;-79
2021/07/10 09:18:48;;;;;;;29.73;21.08;;;;;;;;;;4358401;32;20249;-80
2021/07/10 09:21:32;;;;;;;31.33;20.65;;;;;;;;;;4358833;33;20146;-78
2021/07/10 09:23:57;;;;;;;31.67;23.20;;;;;;;;;;4358918;33;20185;-77
2021/07/10 09:26:24;;;;;;;31.60;22.62;;;;;;;;;;4358010;33;20139;-79
2021/07/10 09:29:00;;;;;;;31.05;21.90;;;;;;;;;;4358270;32;20197;-77
2021/07/10 09:31:27;;;;;;;32.63;22.20;;;;;;;;;;4358560;33;20135;-80
2021/07/10 09:33:59;;;;;;;30.92;22.77;;;;;;;;;;4357445;33;20514;-78
2021/07/10 09:36:24;;;;;;;30.08;21.83;;;;;;;;;;4357805;33;20219;-79
2021/07/10 09:38:53;;;;;;;30.10;19.87;;;;;;;;;;4357626;33;20138;-79
2021/07/10 09:41:23;;;;;;;28.35;19.27;;;;;;;;;;4358500;33;20540;-78
2021/07/10 09:43:48;;;;;;;31.70;20.80;;;;;;;;;;4356974;33;20556;-79
2021/07/10 09:46:23;;;;;;;27.30;20.70;;;;;;;;;;4357895;33;20162;-79
2021/07/10 09:48:48;;;;;;;33.30;21.60;;;;;;;;;;4358959;33;20647;-79
2021/07/10 09:51:17;;;;;;;34.22;22.15;;;;;;;;;;4358378;33;20154;-77
2021/07/10 09:53:56;;;;;;;31.37;23.45;;;;;;;;;;4358077;33;20136;-79
2021/07/10 09:56:21;;;;;;;39.47;24.08;;;;;;;;;;4356900;33;20600;-80
2021/07/10 09:58:46;;;;;;;36.05;22.30;;;;;;;;;;4357640;33;20138;-79
2021/07/10 10:01:28;;;;;;;34.08;23.55;;;;;;;;;;4358230;33;20605;-79
2021/07/10 10:03:53;;;;;;;34.13;22.42;;;;;;;;;;4358085;33;20582;-78
2021/07/10 10:06:32;;;;;;;34.17;24.12;;;;;;;;;;4358072;33;20183;-77
2021/07/10 10:08:58;;;;;;;33.45;22.98;;;;;;;;;;4358381;33;20142;-80
2021/07/10 10:11:23;;;;;;;31.60;21.75;;;;;;;;;;4358095;32;20144;-80
2021/07/10 10:13:49;;;;;;;30.73;20.83;;;;;;;;;;4345827;33;20178;-78
2021/07/10 10:16:15;;;;;;;28.67;21.12;;;;;;;;;;4343188;33;20567;-78
2021/07/10 10:18:42;;;;;;;32.63;19.55;;;;;;;;;;4342935;33;20140;-79
2021/07/10 10:21:08;;;;;;;33.30;21.98;;;;;;;;;;4343169;33;20148;-78
2021/07/10 10:23:34;;;;;;;30.58;20.25;;;;;;;;;;4343228;33;20555;-79
2021/07/10 10:25:59;;;;;;;26.48;18.85;;;;;;;;;;4342702;33;20171;-80
2021/07/10 10:28:24;;;;;;;27.50;18.58;;;;;;;;;;4343262;33;20143;-78
2021/07/10 10:30:51;;;;;;;31.40;20.98;;;;;;;;;;4354673;32;20218;-79
2021/07/10 10:33:17;;;;;;;29.75;19.92;;;;;;;;;;4342964;33;20523;-78
2021/07/10 10:35:42;;;;;;;28.75;19.02;;;;;;;;;;4343266;33;20139;-78
2021/07/10 10:38:08;;;;;;;29.00;21.45;;;;;;;;;;4343231;33;20148;-79
2021/07/10 10:40:33;;;;;;;25.08;18.02;;;;;;;;;;4342589;33;20163;-80
2021/07/10 10:43:00;;;;;;;25.80;18.48;;;;;;;;;;4352477;33;20642;-82
2021/07/10 10:45:29;;;;;;;23.40;16.98;;;;;;;;;;4355911;32;20159;-78
2021/07/10 10:47:54;;;;;;;25.20;14.75;;;;;;;;;;4357049;32;20429;-78
2021/07/10 10:50:23;;;;;;;25.65;16.30;;;;;;;;;;4356597;32;20201;-78
2021/07/10 10:52:48;;;;;;;24.33;16.85;;;;;;;;;;4359643;32;20159;-78
2021/07/10 10:55:15;;;;;;;21.15;14.25;;;;;;;;;;4360006;32;20143;-79
2021/07/10 10:57:42;;;;;;;20.98;14.23;;;;;;;;;;4359678;32;20131;-78
2021/07/10 11:00:13;;;;;;;19.70;12.00;;;;;;;;;;4358617;32;20223;-78
2021/07/10 11:02:54;;;;;;;18.70;11.30;;;;;;;;;;4359850;32;20210;-78
2021/07/10 11:05:25;;;;;;;19.75;13.45;;;;;;;;;;4359659;33;20552;-78
2021/07/10 11:07:50;;;;;;;20.83;13.40;;;;;;;;;;4360075;32;20233;-76
2021/07/10 11:10:16;;;;;;;23.30;13.13;;;;;;;;;;4359829;32;20479;-78
2021/07/10 11:12:53;;;;;;;16.33;10.85;;;;;;;;;;4360206;32;20552;-77
2021/07/10 11:15:24;;;;;;;15.90;11.38;;;;;;;;;;4359899;33;20204;-77
2021/07/10 11:17:49;;;;;;;17.85;12.50;;;;;;;;;;4359664;32;20193;-79
2021/07/10 11:20:36;;;;;;;17.10;10.82;;;;;;;;;;4359590;32;20147;-77
2021/07/10 11:23:01;;;;;;;14.25;10.15;;;;;;;;;;4359910;32;20173;-79
2021/07/10 11:25:45;;;;;;;17.05;12.45;;;;;;;;;;4342763;33;20171;-78
2021/07/10 11:28:17;;;;;;;14.60;10.50;;;;;;;;;;4344297;33;20151;-78
2021/07/10 11:30:43;;;;;;;18.60;12.63;;;;;;;;;;4346630;33;20148;-78
2021/07/10 11:33:08;;;;;;;16.73;11.88;;;;;;;;;;4351764;32;20151;-79
2021/07/10 11:35:34;;;;;;;17.07;12.77;;;;;;;;;;4346859;33;20174;-79
2021/07/10 11:37:59;;;;;;;20.77;13.38;;;;;;;;;;4355105;33;20308;-79
2021/07/10 11:40:34;;;;;;;21.50;13.70;;;;;;;;;;4359864;32;20178;-80
2021/07/10 11:43:05;;;;;;;18.60;13.10;;;;;;;;;;4345364;33;20131;-79
2021/07/10 11:45:31;;;;;;;19.25;12.88;;;;;;;;;;4344852;33;20191;-78
2021/07/10 11:47:58;;;;;;;18.30;12.35;;;;;;;;;;4343071;32;20217;-78
2021/07/10 11:50:26;;;;;;;16.52;12.10;;;;;;;;;;4344243;33;20165;-79
2021/07/10 11:52:57;;;;;;;18.27;13.35;;;;;;;;;;4344352;32;20225;-78
2021/07/10 11:55:24;;;;;;;18.58;12.48;;;;;;;;;;4344577;33;20151;-78
2021/07/10 11:57:49;;;;;;;18.42;13.75;;;;;;;;;;4344861;33;20205;-79
2021/07/10 12:00:15;;;;;;;17.73;12.93;;;;;;;;;;4343969;33;20179;-79
2021/07/10 12:02:41;;;;;;;18.62;12.73;;;;;;;;;;4344050;33;20186;-79
2021/07/10 12:05:06;;;;;;;19.17;13.05;;;;;;;;;;4344936;33;20159;-79
2021/07/10 12:07:33;;;;;;;17.95;13.60;;;;;;;;;;4344519;33;20174;-76
2021/07/10 12:09:58;;;;;;;20.45;15.65;;;;;;;;;;4344190;33;20139;-80
2021/07/10 12:12:23;;;;;;;24.17;15.65;;;;;;;;;;4344206;33;20166;-79
2021/07/10 12:14:52;;;;;;;17.20;13.03;;;;;;;;;;4344434;33;20606;-79
2021/07/10 12:17:17;;;;;;;14.50;11.27;;;;;;;;;;4344178;33;20248;-78
2021/07/10 12:19:43;;;;;;;17.10;12.55;;;;;;;;;;4343432;33;20156;-78
2021/07/10 12:22:08;;;;;;;18.55;14.50;;;;;;;;;;4349678;33;20512;-79
2021/07/10 12:24:34;;;;;;;16.05;12.70;;;;;;;;;;4359267;32;20135;-78
2021/07/10 12:27:09;;;;;;;16.98;11.98;;;;;;;;;;4359041;32;20226;-80
2021/07/10 12:29:35;;;;;;;17.30;12.20;;;;;;;;;;4359034;32;20150;-79
2021/07/10 12:32:00;;;;;;;14.93;11.32;;;;;;;;;;4358178;32;20558;-78
2021/07/10 12:34:25;;;;;;;14.98;11.32;;;;;;;;;;4358971;32;20211;-79
2021/07/10 12:36:51;;;;;;;15.38;11.10;;;;;;;;;;4358628;32;20177;-78
2021/07/10 12:39:23;;;;;;;16.20;12.37;;;;;;;;;;4358693;32;20493;-78
2021/07/10 12:41:50;;;;;;;17.35;12.50;;;;;;;;;;4347631;32;20163;-76
2021/07/10 12:44:15;;;;;;;15.90;12.85;;;;;;;;;;4350401;32;20229;-77
2021/07/10 12:46:49;;;;;;;19.02;13.75;;;;;;;;;;4336746;32;20222;-78
2021/07/10 12:49:15;;;;;;;19.40;15.60;;;;;;;;;;4354754;32;20178;-78
2021/07/10 12:51:40;;;;;;;22.62;16.77;;;;;;;;;;4343977;32;20147;-79
2021/07/10 12:54:24;;;;;;;25.88;17.48;;;;;;;;;;4343810;33;20139;-78
2021/07/10 12:56:50;;;;;;;20.60;16.17;;;;;;;;;;4343170;33;20178;-78
2021/07/10 12:59:19;;;;;;;23.05;17.50;;;;;;;;;;4353841;33;20162;-78
2021/07/10 13:01:48;;;;;;;23.00;16.15;;;;;;;;;;4358054;32;20144;-78
2021/07/10 13:04:14;;;;;;;24.60;14.87;;;;;;;;;;4357513;33;20649;-79
2021/07/10 13:06:42;;;;;;;19.67;14.73;;;;;;;;;;4358118;33;20179;-78
2021/07/10 13:09:07;;;;;;;20.88;16.23;;;;;;;;;;4358708;32;20147;-79
2021/07/10 13:11:44;;;;;;;21.25;18.15;;;;;;;;;;4358034;33;20190;-78
2021/07/10 13:14:18;;;;;;;24.92;18.42;;;;;;;;;;4357752;32;20238;-77
2021/07/10 13:16:43;;;;;;;23.77;17.62;;;;;;;;;;4358245;32;20151;-80
2021/07/10 13:19:08;;;;;;;22.30;14.95;;;;;;;;;;4357786;33;20189;-79
2021/07/10 13:21:34;;;;;;;20.90;14.87;;;;;;;;;;4357736;32;20143;-79
2021/07/10 13:24:03;;;;;;;17.67;13.77;;;;;;;;;;4358350;33;20290;-79
2021/07/10 13:26:32;;;;;;;19.02;14.07;;;;;;;;;;4358150;33;20457;-79
2021/07/10 13:29:13;;;;;;;16.87;12.30;;;;;;;;;;4357569;33;20148;-78
2021/07/10 13:31:40;;;;;;;16.62;12.50;;;;;;;;;;4356729;33;20151;-78
2021/07/10 13:34:10;;;;;;;17.60;11.82;;;;;;;;;;4356421;33;20167;-79
2021/07/10 13:36:36;;;;;;;18.45;12.20;;;;;;;;;;4357824;32;20142;-79
2021/07/10 13:39:04;;;;;;;15.23;12.13;;;;;;;;;;4356951;32;20200;-78
2021/07/10 13:41:30;;;;;;;18.02;13.73;;;;;;;;;;4358144;33;20166;-78
2021/07/10 13:44:00;;;;;;;21.17;12.82;;;;;;;;;;4358119;33;20135;-78
2021/07/10 13:46:30;;;;;;;16.95;12.93;;;;;;;;;;4358164;33;20181;-79
2021/07/10 13:48:55;;;;;;;19.20;13.88;;;;;;;;;;4358170;33;20185;-80
2021/07/10 13:51:25;;;;;;;18.62;13.10;;;;;;;;;;4358099;33;20552;-79
2021/07/10 13:53:50;;;;;;;19.95;15.82;;;;;;;;;;4356298;33;20209;-80
2021/07/10 13:56:19;;;;;;;25.70;18.77;;;;;;;;;;4357516;33;20238;-79
2021/07/10 13:58:58;;;;;;;18.98;13.65;;;;;;;;;;4357686;33;20144;-79
2021/07/10 14:01:23;;;;;;;22.83;14.48;;;;;;;;;;4357958;32;20143;-79
2021/07/10 14:03:48;;;;;;;19.77;13.43;;;;;;;;;;4357356;33;20618;-78
2021/07/10 14:06:14;;;;;;;18.87;13.20;;;;;;;;;;4355950;33;20507;-77
2021/07/10 14:08:39;;;;;;;15.98;12.15;;;;;;;;;;4358171;33;20213;-78
2021/07/10 14:11:07;;;;;;;17.00;12.55;;;;;;;;;;4357918;33;20135;-80
2021/07/10 14:13:32;;;;;;;17.90;12.65;;;;;;;;;;4357874;33;20144;-78
2021/07/10 14:15:59;;;;;;;15.63;11.68;;;;;;;;;;4357420;33;20208;-78
2021/07/10 14:18:25;;;;;;;18.33;14.05;;;;;;;;;;4356966;33;20524;-79
2021/07/10 14:21:00;;;;;;;15.93;11.98;;;;;;;;;;4357379;33;20196;-79
2021/07/10 14:23:26;;;;;;;14.90;12.32;;;;;;;;;;4357936;32;20214;-80
2021/07/10 14:25:52;;;;;;;15.80;12.05;;;;;;;;;;4359468;32;20575;-79